createdAt,value
2017-07-05T00:00:01.128Z,21.67
2017-07-05T00:02:30.040Z,23.53
2017-07-05T00:04:58.389Z,22.23
2017-07-05T00:07:26.693Z,19.93
2017-07-05T00:09:55.047Z,18.50
2017-07-05T00:12:23.370Z,24.40
2017-07-05T00:14:51.669Z,20.10
2017-07-05T00:17:20.048Z,17.37
2017-07-05T00:19:49.105Z,17.70
2017-07-05T00:22:18.226Z,22.80
2017-07-05T00:24:46.520Z,24.20
2017-07-05T00:27:14.888Z,25.27
2017-07-05T00:29:43.192Z,18.03
2017-07-05T00:32:11.552Z,20.10
2017-07-05T00:34:39.898Z,22.37
2017-07-05T00:37:08.250Z,22.53
2017-07-05T00:39:36.693Z,18.77
2017-07-05T00:42:04.992Z,21.53
2017-07-05T00:44:33.300Z,19.50
2017-07-05T00:47:01.653Z,21.20
2017-07-05T00:49:30.083Z,19.60
2017-07-05T00:51:58.434Z,22.00
2017-07-05T00:54:26.737Z,27.77
2017-07-05T00:56:55.620Z,27.13
2017-07-05T00:59:23.948Z,20.30
2017-07-05T01:01:52.263Z,27.60
2017-07-05T01:04:20.568Z,26.80
2017-07-05T01:06:48.918Z,26.10
2017-07-05T01:09:17.224Z,26.90
2017-07-05T01:11:45.592Z,24.53
2017-07-05T01:14:13.903Z,24.40
2017-07-05T01:16:42.977Z,33.70
2017-07-05T01:19:11.328Z,28.70
2017-07-05T01:21:39.634Z,30.10
2017-07-05T01:24:08.001Z,42.40
2017-07-05T01:26:36.349Z,31.43
2017-07-05T01:29:08.250Z,35.83
2017-07-05T01:31:43.580Z,37.83
2017-07-05T01:34:11.925Z,31.67
2017-07-05T01:36:40.232Z,37.50
2017-07-05T01:39:08.581Z,44.50
2017-07-05T01:41:37.692Z,33.27
2017-07-05T01:44:06.817Z,41.00
2017-07-05T01:46:35.168Z,38.23
2017-07-05T01:49:03.475Z,43.47
2017-07-05T01:51:32.589Z,41.73
2017-07-05T01:54:01.658Z,40.37
2017-07-05T01:56:30.025Z,31.50
2017-07-05T01:58:58.338Z,35.13
2017-07-05T02:01:26.834Z,40.80
2017-07-05T02:03:55.135Z,26.47
2017-07-05T02:06:23.460Z,28.73
2017-07-05T02:08:51.813Z,33.90
2017-07-05T02:11:20.116Z,31.70
2017-07-05T02:13:48.465Z,32.23
2017-07-05T02:16:16.825Z,29.10
2017-07-05T02:18:45.124Z,29.13
2017-07-05T02:21:13.429Z,35.87
2017-07-05T02:23:41.803Z,33.80
2017-07-05T02:26:10.147Z,30.80
2017-07-05T02:28:38.475Z,30.20
2017-07-05T02:31:06.824Z,35.23
2017-07-05T02:33:35.120Z,29.37
2017-07-05T02:36:03.493Z,40.17
2017-07-05T02:38:31.800Z,27.40
2017-07-05T02:41:00.115Z,22.47
2017-07-05T02:43:28.460Z,29.27
2017-07-05T02:45:56.809Z,26.60
2017-07-05T02:48:25.160Z,35.20
2017-07-05T02:50:53.507Z,28.10
2017-07-05T02:53:21.809Z,38.53
2017-07-05T02:55:50.155Z,42.27
2017-07-05T02:58:18.517Z,38.70
2017-07-05T03:00:46.820Z,35.00
2017-07-05T03:03:15.896Z,32.77
2017-07-05T03:05:44.254Z,30.67
2017-07-05T03:08:12.555Z,31.40
2017-07-05T03:10:40.864Z,25.20
2017-07-05T03:13:09.209Z,29.23
2017-07-05T03:15:37.557Z,31.13
2017-07-05T03:18:05.909Z,33.27
2017-07-05T03:20:34.219Z,32.47
2017-07-05T03:23:02.580Z,37.07
2017-07-05T03:25:30.892Z,31.90
2017-07-05T03:27:59.199Z,33.00
2017-07-05T03:30:27.569Z,29.73
2017-07-05T03:32:55.874Z,29.83
2017-07-05T03:35:24.185Z,29.03
2017-07-05T03:37:53.308Z,29.37
2017-07-05T03:40:21.618Z,28.43
2017-07-05T03:42:49.988Z,27.33
2017-07-05T03:45:19.076Z,29.50
2017-07-05T03:47:47.377Z,26.17
2017-07-05T03:50:15.721Z,31.50
2017-07-05T03:52:44.025Z,27.63
2017-07-05T03:55:12.377Z,25.33
2017-07-05T03:57:40.737Z,30.33
2017-07-05T04:00:09.061Z,25.37
2017-07-05T04:02:37.379Z,26.70
2017-07-05T04:05:05.736Z,28.50
2017-07-05T04:07:34.089Z,25.00
2017-07-05T04:10:02.435Z,23.67
2017-07-05T04:12:30.720Z,28.73
2017-07-05T04:14:59.070Z,27.77
2017-07-05T04:17:27.395Z,35.63
2017-07-05T04:19:55.740Z,26.37
2017-07-05T04:22:24.039Z,28.37
2017-07-05T04:24:52.830Z,25.87
2017-07-05T04:27:21.135Z,20.87
2017-07-05T04:29:50.201Z,27.33
2017-07-05T04:32:18.560Z,23.43
2017-07-05T04:34:46.864Z,20.80
2017-07-05T04:37:15.173Z,21.53
2017-07-05T04:39:43.525Z,19.77
2017-07-05T04:42:11.824Z,21.27
2017-07-05T04:44:40.205Z,17.20
2017-07-05T04:47:08.526Z,23.43
2017-07-05T04:49:36.878Z,21.07
2017-07-05T04:52:05.187Z,25.87
2017-07-05T04:54:33.554Z,15.40
2017-07-05T04:57:02.892Z,21.50
2017-07-05T04:59:31.195Z,15.20
2017-07-05T05:01:59.552Z,18.73
2017-07-05T05:04:27.860Z,13.20
2017-07-05T05:06:56.209Z,15.83
2017-07-05T05:09:24.517Z,13.63
2017-07-05T05:11:52.885Z,18.63
2017-07-05T05:14:21.949Z,15.93
2017-07-05T05:16:50.423Z,13.80
2017-07-05T05:19:18.735Z,14.40
2017-07-05T05:21:47.064Z,22.33
2017-07-05T05:24:15.418Z,17.17
2017-07-05T05:26:43.782Z,14.80
2017-07-05T05:29:12.100Z,14.83
2017-07-05T05:31:40.438Z,14.30
2017-07-05T05:34:09.563Z,19.13
2017-07-05T05:36:37.917Z,21.53
2017-07-05T05:39:06.984Z,15.23
2017-07-05T05:41:35.332Z,12.13
2017-07-05T05:44:04.397Z,12.83
2017-07-05T05:46:32.748Z,16.33
2017-07-05T05:49:01.061Z,16.03
2017-07-05T05:51:29.429Z,14.23
2017-07-05T05:53:57.779Z,15.93
2017-07-05T05:56:26.076Z,19.40
2017-07-05T05:58:54.498Z,18.73
2017-07-05T06:01:22.866Z,20.10
2017-07-05T06:03:51.937Z,23.17
2017-07-05T06:06:20.292Z,16.13
2017-07-05T06:08:48.631Z,18.23
2017-07-05T06:11:16.933Z,26.57
2017-07-05T06:13:45.294Z,16.10
2017-07-05T06:16:13.801Z,16.43
2017-07-05T06:18:43.335Z,12.23
2017-07-05T06:21:11.629Z,14.53
2017-07-05T06:23:39.998Z,9.57
2017-07-05T06:26:08.777Z,12.43
2017-07-05T06:28:37.387Z,12.70
2017-07-05T06:31:05.790Z,14.90
2017-07-05T06:33:34.096Z,14.23
2017-07-05T06:36:02.450Z,11.10
2017-07-05T06:38:30.798Z,11.63
2017-07-05T06:40:59.141Z,11.83
2017-07-05T06:43:27.453Z,13.77
2017-07-05T06:45:55.924Z,14.40
2017-07-05T06:48:24.240Z,18.13
2017-07-05T06:50:52.544Z,15.13
2017-07-05T06:53:21.659Z,20.67
2017-07-05T06:55:50.777Z,15.93
2017-07-05T06:58:19.085Z,12.33
2017-07-05T07:00:47.524Z,13.60
2017-07-05T07:03:15.828Z,13.47
2017-07-05T07:05:44.888Z,10.03
2017-07-05T07:08:13.256Z,10.83
2017-07-05T07:10:41.557Z,12.07
2017-07-05T07:13:09.856Z,11.17
2017-07-05T07:15:38.263Z,14.90
2017-07-05T07:18:06.561Z,31.30
2017-07-05T07:20:34.864Z,13.43
2017-07-05T07:23:03.208Z,14.67
2017-07-05T07:25:31.683Z,19.93
2017-07-05T07:27:59.991Z,12.77
2017-07-05T07:30:28.306Z,16.67
2017-07-05T07:32:56.664Z,19.33
2017-07-05T07:35:24.981Z,23.13
2017-07-05T07:37:53.355Z,18.37
2017-07-05T07:40:21.668Z,19.80
2017-07-05T07:42:49.992Z,23.30
2017-07-05T07:45:19.110Z,22.33
2017-07-05T07:47:47.705Z,23.90
2017-07-05T07:50:16.032Z,16.93
2017-07-05T07:52:44.338Z,23.03
2017-07-05T07:55:12.689Z,12.40
2017-07-05T07:57:41.249Z,20.03
2017-07-05T08:00:10.316Z,20.67
2017-07-05T08:02:38.621Z,15.13
2017-07-05T08:05:06.981Z,25.80
2017-07-05T08:07:35.293Z,15.77
2017-07-05T08:10:03.596Z,19.77
2017-07-05T08:12:31.964Z,13.60
2017-07-05T08:15:00.269Z,16.50
2017-07-05T08:17:28.620Z,16.47
2017-07-05T08:19:57.138Z,15.37
2017-07-05T08:22:25.443Z,18.03
2017-07-05T08:24:53.826Z,14.60
2017-07-05T08:27:22.175Z,18.90
2017-07-05T08:29:50.484Z,11.67
2017-07-05T08:32:18.852Z,13.93
2017-07-05T08:34:47.162Z,11.63
2017-07-05T08:37:15.500Z,18.07
2017-07-05T08:39:44.792Z,16.97
2017-07-05T08:42:13.100Z,12.97
2017-07-05T08:44:41.405Z,13.53
2017-07-05T08:47:09.767Z,15.40
2017-07-05T08:49:39.874Z,16.83
2017-07-05T08:52:08.193Z,17.90
2017-07-05T08:54:36.538Z,15.33
2017-07-05T08:57:04.894Z,15.27
2017-07-05T08:59:33.257Z,17.50
2017-07-05T09:02:01.573Z,15.30
2017-07-05T09:04:29.884Z,19.00
2017-07-05T09:06:58.273Z,17.47
2017-07-05T09:09:26.652Z,17.57
2017-07-05T09:11:54.972Z,17.23
2017-07-05T09:14:23.281Z,11.40
2017-07-05T09:16:51.627Z,13.20
2017-07-05T09:19:21.281Z,14.17
2017-07-05T09:21:49.602Z,15.83
2017-07-05T09:24:17.951Z,14.33
2017-07-05T09:26:46.262Z,11.80
2017-07-05T09:29:14.641Z,16.33
2017-07-05T09:31:42.953Z,17.90
2017-07-05T09:34:11.340Z,15.90
2017-07-05T09:36:39.742Z,11.20
2017-07-05T09:39:08.054Z,11.27
2017-07-05T09:41:37.125Z,11.63
2017-07-05T09:44:06.562Z,12.93
2017-07-05T09:46:34.932Z,12.27
2017-07-05T09:49:03.228Z,18.17
2017-07-05T09:51:31.544Z,23.50
2017-07-05T09:53:59.933Z,19.03
2017-07-05T09:56:28.293Z,16.50
2017-07-05T09:58:56.600Z,12.57
2017-07-05T10:01:24.900Z,17.07
2017-07-05T10:03:53.283Z,14.83
2017-07-05T10:06:21.644Z,13.93
2017-07-05T10:08:49.941Z,13.20
2017-07-05T10:11:18.346Z,12.93
2017-07-05T10:13:46.657Z,13.77
2017-07-05T10:16:15.021Z,10.50
2017-07-05T10:18:43.377Z,13.47
2017-07-05T10:21:11.782Z,11.30
2017-07-05T10:23:40.822Z,14.00
2017-07-05T10:26:09.181Z,13.63
2017-07-05T10:28:37.546Z,16.80
2017-07-05T10:31:05.855Z,17.20
2017-07-05T10:33:34.175Z,16.90
2017-07-05T10:36:03.929Z,17.10
2017-07-05T10:38:32.996Z,14.90
2017-07-05T10:41:01.368Z,18.90
2017-07-05T10:43:29.670Z,11.57
2017-07-05T10:45:57.976Z,12.50
2017-07-05T10:48:26.927Z,16.33
2017-07-05T10:50:55.260Z,18.33
2017-07-05T10:53:23.570Z,20.20
2017-07-05T10:55:51.953Z,16.63
2017-07-05T10:58:21.206Z,20.87
2017-07-05T11:00:49.515Z,20.23
2017-07-05T11:03:19.189Z,28.40
2017-07-05T11:05:47.525Z,18.60
2017-07-05T11:08:15.940Z,18.40
2017-07-05T11:10:44.281Z,14.30
2017-07-05T11:13:13.394Z,23.83
2017-07-05T11:15:41.776Z,17.60
2017-07-05T11:18:10.176Z,16.33
2017-07-05T11:20:39.246Z,17.70
2017-07-05T11:23:07.592Z,16.03
2017-07-05T11:25:41.108Z,21.93
2017-07-05T11:28:09.456Z,16.57
2017-07-05T11:30:38.005Z,18.53
2017-07-05T11:33:06.449Z,17.70
2017-07-05T11:35:34.784Z,15.67
2017-07-05T11:38:03.132Z,13.53
2017-07-05T11:40:31.459Z,13.23
2017-07-05T11:42:59.816Z,19.57
2017-07-05T11:45:28.933Z,16.53
2017-07-05T11:47:58.466Z,21.60
2017-07-05T11:50:26.800Z,15.47
2017-07-05T11:52:55.128Z,16.20
2017-07-05T11:55:23.498Z,15.80
2017-07-05T11:57:51.805Z,14.50
2017-07-05T12:00:20.925Z,12.20
2017-07-05T12:02:49.281Z,12.63
2017-07-05T12:05:18.377Z,10.33
2017-07-05T12:07:46.735Z,18.50
2017-07-05T12:10:15.049Z,11.10
2017-07-05T12:12:43.348Z,12.37
2017-07-05T12:15:11.743Z,11.17
2017-07-05T12:17:40.050Z,12.67
2017-07-05T12:20:08.451Z,36.33
2017-07-05T12:22:36.798Z,10.60
2017-07-05T12:25:05.076Z,16.53
2017-07-05T12:27:33.437Z,13.90
2017-07-05T12:30:01.930Z,14.63
2017-07-05T12:32:31.835Z,15.60
2017-07-05T12:35:00.223Z,11.80
2017-07-05T12:37:28.516Z,14.47
2017-07-05T12:39:56.894Z,12.13
2017-07-05T12:42:25.181Z,15.90
2017-07-05T12:44:53.728Z,12.90
2017-07-05T12:47:22.072Z,9.50
2017-07-05T12:49:50.388Z,11.70
2017-07-05T12:52:18.733Z,11.10
2017-07-05T12:54:47.028Z,26.93
2017-07-05T12:57:15.365Z,11.47
2017-07-05T12:59:43.710Z,12.27
2017-07-05T13:02:12.052Z,12.97
2017-07-05T13:04:40.421Z,19.27
2017-07-05T13:07:08.722Z,12.30
2017-07-05T13:09:37.012Z,17.50
2017-07-05T13:12:05.360Z,22.93
2017-07-05T13:14:33.708Z,16.37
2017-07-05T13:17:02.052Z,16.50
2017-07-05T13:19:30.506Z,21.20
2017-07-05T13:21:58.803Z,17.53
2017-07-05T13:24:27.105Z,16.17
2017-07-05T13:26:55.592Z,18.90
2017-07-05T13:29:23.908Z,14.30
2017-07-05T13:31:52.259Z,19.30
2017-07-05T13:34:20.575Z,17.10
2017-07-05T13:36:48.868Z,16.13
2017-07-05T13:39:17.298Z,16.97
2017-07-05T13:41:45.597Z,14.03
2017-07-05T13:44:13.948Z,19.83
2017-07-05T13:46:42.254Z,17.23
2017-07-05T13:49:10.610Z,17.77
2017-07-05T13:51:38.908Z,24.07
2017-07-05T13:54:07.289Z,17.47
2017-07-05T13:56:35.610Z,19.23
2017-07-05T13:59:03.936Z,22.23
2017-07-05T14:01:32.285Z,20.00
2017-07-05T14:04:00.637Z,20.70
2017-07-05T14:06:29.269Z,13.87
2017-07-05T14:08:57.633Z,21.03
2017-07-05T14:11:25.947Z,12.53
2017-07-05T14:13:54.249Z,17.83
2017-07-05T14:16:22.608Z,14.10
2017-07-05T14:18:50.917Z,13.93
2017-07-05T14:21:19.292Z,14.63
2017-07-05T14:23:47.637Z,13.00
2017-07-05T14:26:15.941Z,13.30
2017-07-05T14:28:44.265Z,14.20
2017-07-05T14:31:12.635Z,13.20
2017-07-05T14:33:40.937Z,14.90
2017-07-05T14:36:09.317Z,15.33
2017-07-05T14:38:37.797Z,12.70
2017-07-05T14:41:06.149Z,12.00
2017-07-05T14:43:34.449Z,13.00
2017-07-05T14:46:02.817Z,16.60
2017-07-05T14:48:31.124Z,20.20
2017-07-05T14:50:59.493Z,18.67
2017-07-05T14:53:27.852Z,13.13
2017-07-05T14:55:58.669Z,20.93
2017-07-05T14:58:27.012Z,13.03
2017-07-05T15:00:55.318Z,15.17
2017-07-05T15:03:23.672Z,15.87
2017-07-05T15:05:52.025Z,17.37
2017-07-05T15:08:20.392Z,13.10
2017-07-05T15:10:49.199Z,16.03
2017-07-05T15:13:17.709Z,14.53
2017-07-05T15:15:46.021Z,17.93
2017-07-05T15:18:14.321Z,14.93
2017-07-05T15:20:42.964Z,19.00
2017-07-05T15:23:11.259Z,17.27
2017-07-05T15:25:39.809Z,15.20
2017-07-05T15:28:08.161Z,12.10
2017-07-05T15:30:36.460Z,11.60
2017-07-05T15:33:04.760Z,18.70
2017-07-05T15:35:33.104Z,13.83
2017-07-05T15:38:01.482Z,19.53
2017-07-05T15:40:29.834Z,12.93
2017-07-05T15:42:58.136Z,19.17
2017-07-05T15:45:26.485Z,16.47
2017-07-05T15:47:54.830Z,15.10
2017-07-05T15:50:23.192Z,11.77
2017-07-05T15:52:51.500Z,17.87
2017-07-05T15:55:19.964Z,14.83
2017-07-05T15:57:49.290Z,13.40
2017-07-05T16:00:17.597Z,16.93
2017-07-05T16:02:45.956Z,16.03
2017-07-05T16:05:14.268Z,12.10
2017-07-05T16:07:42.558Z,12.83
2017-07-05T16:10:10.992Z,19.73
2017-07-05T16:12:39.335Z,15.37
2017-07-05T16:15:07.704Z,20.13
2017-07-05T16:17:36.065Z,15.23
2017-07-05T16:20:04.365Z,13.50
2017-07-05T16:22:32.710Z,14.50
2017-07-05T16:25:01.029Z,14.83
2017-07-05T16:27:29.382Z,14.40
2017-07-05T16:29:57.780Z,13.70
2017-07-05T16:32:26.081Z,16.67
2017-07-05T16:34:54.381Z,16.00
2017-07-05T16:37:22.731Z,11.97
2017-07-05T16:39:51.061Z,13.33
2017-07-05T16:42:19.415Z,20.30
2017-07-05T16:44:47.725Z,12.80
2017-07-05T16:47:16.028Z,15.73
2017-07-05T16:49:44.376Z,13.83
2017-07-05T16:52:12.677Z,13.67
2017-07-05T16:54:41.070Z,14.87
2017-07-05T16:57:09.404Z,13.77
2017-07-05T16:59:37.708Z,17.73
2017-07-05T17:02:07.180Z,10.20
2017-07-05T17:04:35.477Z,20.30
2017-07-05T17:07:03.775Z,12.33
2017-07-05T17:09:32.280Z,13.47
2017-07-05T17:12:00.617Z,14.63
2017-07-05T17:14:28.928Z,16.10
2017-07-05T17:16:57.278Z,12.50
2017-07-05T17:19:27.737Z,16.47
2017-07-05T17:21:56.080Z,13.33
2017-07-05T17:24:24.392Z,12.33
2017-07-05T17:26:52.750Z,14.87
2017-07-05T17:29:21.052Z,17.73
2017-07-05T17:31:49.364Z,13.43
2017-07-05T17:34:17.748Z,15.20
2017-07-05T17:36:46.099Z,17.57
2017-07-05T17:39:14.452Z,13.93
2017-07-05T17:41:42.813Z,14.33
2017-07-05T17:44:11.264Z,15.10
2017-07-05T17:46:39.619Z,11.63
2017-07-05T17:49:07.909Z,13.20
2017-07-05T17:51:36.256Z,13.50
2017-07-05T17:54:04.608Z,19.83
2017-07-05T17:56:32.961Z,14.00
2017-07-05T17:59:01.264Z,12.73
2017-07-05T18:01:29.621Z,16.53
2017-07-05T18:03:57.923Z,11.03
2017-07-05T18:06:26.283Z,18.40
2017-07-05T18:08:54.590Z,19.57
2017-07-05T18:11:22.937Z,16.13
2017-07-05T18:13:51.250Z,16.40
2017-07-05T18:16:19.691Z,16.30
2017-07-05T18:18:47.997Z,14.80
2017-07-05T18:21:16.298Z,16.60
2017-07-05T18:23:44.647Z,17.10
2017-07-05T18:26:12.995Z,13.60
2017-07-05T18:28:41.400Z,14.33
2017-07-05T18:31:09.759Z,12.80
2017-07-05T18:33:38.106Z,18.37
2017-07-05T18:36:07.392Z,14.90
2017-07-05T18:38:35.701Z,12.43
2017-07-05T18:41:04.005Z,11.23
2017-07-05T18:43:32.370Z,13.40
2017-07-05T18:46:01.666Z,11.87
2017-07-05T18:48:30.062Z,13.17
2017-07-05T18:50:58.364Z,16.63
2017-07-05T18:53:26.723Z,14.03
2017-07-05T18:55:55.065Z,14.17
2017-07-05T18:58:23.416Z,15.03
2017-07-05T19:00:51.871Z,15.83
2017-07-05T19:03:20.184Z,15.17
2017-07-05T19:05:48.532Z,15.03
2017-07-05T19:08:17.008Z,18.53
2017-07-05T19:10:45.316Z,16.40
2017-07-05T19:13:13.626Z,15.73
2017-07-05T19:15:41.976Z,20.20
2017-07-05T19:18:10.377Z,19.03
2017-07-05T19:20:39.457Z,16.33
2017-07-05T19:23:08.028Z,16.70
2017-07-05T19:25:36.384Z,17.20
2017-07-05T19:28:05.453Z,18.87
2017-07-05T19:30:33.796Z,17.93
2017-07-05T19:33:02.215Z,16.77
2017-07-05T19:35:30.516Z,19.70
2017-07-05T19:37:58.868Z,21.63
2017-07-05T19:40:27.216Z,16.63
2017-07-05T19:42:55.540Z,16.27
2017-07-05T19:45:23.898Z,20.20
2017-07-05T19:47:52.308Z,18.60
2017-07-05T19:50:20.613Z,20.57
2017-07-05T19:52:49.145Z,25.17
2017-07-05T19:55:17.477Z,22.53
2017-07-05T19:57:46.090Z,21.93
2017-07-05T20:00:14.818Z,24.33
2017-07-05T20:02:43.194Z,24.13
2017-07-05T20:05:11.676Z,20.20
2017-07-05T20:07:40.129Z,27.03
2017-07-05T20:10:08.887Z,27.60
2017-07-05T20:12:37.441Z,22.60
2017-07-05T20:15:05.856Z,26.53
2017-07-05T20:17:34.528Z,28.07
2017-07-05T20:20:04.798Z,28.27
2017-07-05T20:22:33.174Z,26.90
2017-07-05T20:25:01.484Z,31.73
2017-07-05T20:27:29.860Z,22.50
2017-07-05T20:29:58.450Z,31.33
2017-07-05T20:32:26.761Z,22.23
2017-07-05T20:34:55.068Z,32.60
2017-07-05T20:37:23.519Z,29.50
2017-07-05T20:39:52.976Z,31.20
2017-07-05T20:42:21.337Z,29.30
2017-07-05T20:44:49.709Z,29.10
2017-07-05T20:47:18.033Z,29.83
2017-07-05T20:49:46.339Z,26.47
2017-07-05T20:52:14.717Z,28.17
2017-07-05T20:54:43.023Z,28.50
2017-07-05T20:57:12.752Z,24.30
2017-07-05T20:59:41.098Z,31.53
2017-07-05T21:02:09.414Z,22.60
2017-07-05T21:04:37.769Z,32.07
2017-07-05T21:07:06.861Z,28.17
2017-07-05T21:09:35.475Z,28.07
2017-07-05T21:12:04.542Z,32.13
2017-07-05T21:14:32.841Z,28.00
2017-07-05T21:17:01.197Z,31.60
2017-07-05T21:19:29.565Z,39.73
2017-07-05T21:21:57.869Z,30.43
2017-07-05T21:24:26.225Z,35.23
2017-07-05T21:26:54.583Z,33.43
2017-07-05T21:29:22.930Z,26.63
2017-07-05T21:31:51.232Z,28.10
2017-07-05T21:34:19.543Z,33.63
2017-07-05T21:36:47.888Z,27.03
2017-07-05T21:39:17.067Z,31.90
2017-07-05T21:41:45.425Z,29.77
2017-07-05T21:44:13.777Z,32.27
2017-07-05T21:46:42.845Z,33.57
2017-07-05T21:49:11.191Z,34.37
2017-07-05T21:51:39.553Z,30.77
2017-07-05T21:54:08.629Z,35.87
2017-07-05T21:56:38.768Z,30.73
2017-07-05T21:59:08.045Z,30.57
2017-07-05T22:01:36.389Z,27.60
2017-07-05T22:04:05.467Z,36.13
2017-07-05T22:06:33.821Z,27.70
2017-07-05T22:09:02.123Z,29.37
2017-07-05T22:11:30.488Z,29.50
2017-07-05T22:13:59.559Z,29.33
2017-07-05T22:16:30.267Z,28.00
2017-07-05T22:18:58.727Z,33.17
2017-07-05T22:21:27.797Z,34.57
2017-07-05T22:23:56.096Z,32.83
2017-07-05T22:26:24.704Z,33.20
2017-07-05T22:28:53.005Z,27.90
2017-07-05T22:31:22.072Z,29.93
2017-07-05T22:33:50.429Z,32.30
2017-07-05T22:36:18.745Z,37.43
2017-07-05T22:38:47.104Z,34.80
2017-07-05T22:41:15.419Z,37.33
2017-07-05T22:43:43.756Z,34.73
2017-07-05T22:46:12.068Z,27.57
2017-07-05T22:48:40.436Z,31.47
2017-07-05T22:51:09.059Z,26.13
2017-07-05T22:53:37.416Z,29.37
2017-07-05T22:56:05.716Z,31.50
2017-07-05T22:58:34.016Z,28.57
2017-07-05T23:01:02.364Z,31.60
2017-07-05T23:03:30.743Z,36.37
2017-07-05T23:05:59.049Z,36.37
2017-07-05T23:08:27.367Z,42.10
2017-07-05T23:10:55.737Z,33.40
2017-07-05T23:13:24.045Z,29.90
2017-07-05T23:15:52.497Z,36.80
2017-07-05T23:18:20.810Z,46.00
2017-07-05T23:20:49.196Z,35.70
2017-07-05T23:23:18.610Z,38.93
2017-07-05T23:25:46.911Z,31.93
2017-07-05T23:28:18.176Z,32.27
2017-07-05T23:30:46.480Z,36.30
2017-07-05T23:33:19.075Z,34.83
2017-07-05T23:35:47.438Z,34.40
2017-07-05T23:38:15.744Z,42.27
2017-07-05T23:40:44.087Z,38.03
2017-07-05T23:43:12.452Z,34.90
2017-07-05T23:45:40.825Z,34.00
2017-07-05T23:48:09.124Z,31.87
2017-07-05T23:50:37.431Z,32.93
2017-07-05T23:53:05.777Z,33.37
2017-07-05T23:55:34.081Z,36.00
2017-07-05T23:58:04.247Z,37.47
